sensor_id;sensor_type;location;lat;lon;timestamp;P1;durP1;ratioP1;P2;durP2;ratioP2
75413;SDS011;64758;52.122;5.404;2023-06-22T00:02:25;4.28;;;2.08;;
75413;SDS011;64758;52.122;5.404;2023-06-22T00:04:52;4.50;;;2.50;;
75413;SDS011;64758;52.122;5.404;2023-06-22T00:07:19;5.25;;;2.72;;
75413;SDS011;64758;52.122;5.404;2023-06-22T00:09:45;2.93;;;2.07;;
75413;SDS011;64758;52.122;5.404;2023-06-22T00:12:12;3.90;;;2.08;;
75413;SDS011;64758;52.122;5.404;2023-06-22T00:14:38;5.38;;;2.60;;
75413;SDS011;64758;52.122;5.404;2023-06-22T00:17:05;5.25;;;2.47;;
75413;SDS011;64758;52.122;5.404;2023-06-22T00:19:31;3.40;;;2.65;;
75413;SDS011;64758;52.122;5.404;2023-06-22T00:21:59;3.50;;;2.40;;
75413;SDS011;64758;52.122;5.404;2023-06-22T00:24:26;4.10;;;2.63;;
75413;SDS011;64758;52.122;5.404;2023-06-22T00:26:53;4.45;;;2.42;;
75413;SDS011;64758;52.122;5.404;2023-06-22T00:29:19;7.10;;;2.78;;
75413;SDS011;64758;52.122;5.404;2023-06-22T00:31:49;4.00;;;2.70;;
75413;SDS011;64758;52.122;5.404;2023-06-22T00:34:16;4.03;;;2.47;;
75413;SDS011;64758;52.122;5.404;2023-06-22T00:36:42;3.78;;;2.47;;
75413;SDS011;64758;52.122;5.404;2023-06-22T00:39:09;4.47;;;2.50;;
75413;SDS011;64758;52.122;5.404;2023-06-22T00:41:36;4.22;;;2.90;;
75413;SDS011;64758;52.122;5.404;2023-06-22T00:44:02;3.60;;;2.97;;
75413;SDS011;64758;52.122;5.404;2023-06-22T00:46:30;4.90;;;2.80;;
75413;SDS011;64758;52.122;5.404;2023-06-22T00:48:56;4.32;;;3.13;;
75413;SDS011;64758;52.122;5.404;2023-06-22T00:51:23;4.90;;;2.92;;
75413;SDS011;64758;52.122;5.404;2023-06-22T00:53:51;3.13;;;1.90;;
75413;SDS011;64758;52.122;5.404;2023-06-22T00:56:19;4.15;;;2.47;;
75413;SDS011;64758;52.122;5.404;2023-06-22T00:58:50;3.00;;;2.40;;
75413;SDS011;64758;52.122;5.404;2023-06-22T01:01:19;3.83;;;2.70;;
75413;SDS011;64758;52.122;5.404;2023-06-22T01:03:50;4.60;;;2.63;;
75413;SDS011;64758;52.122;5.404;2023-06-22T01:06:29;4.00;;;2.40;;
75413;SDS011;64758;52.122;5.404;2023-06-22T01:09:25;3.72;;;2.67;;
75413;SDS011;64758;52.122;5.404;2023-06-22T01:11:59;3.73;;;2.40;;
75413;SDS011;64758;52.122;5.404;2023-06-22T01:14:31;3.45;;;2.63;;
75413;SDS011;64758;52.122;5.404;2023-06-22T01:17:04;4.75;;;2.97;;
75413;SDS011;64758;52.122;5.404;2023-06-22T01:22:22;4.10;;;2.83;;
75413;SDS011;64758;52.122;5.404;2023-06-22T01:27:36;3.47;;;2.03;;
75413;SDS011;64758;52.122;5.404;2023-06-22T01:30:28;3.45;;;2.25;;
75413;SDS011;64758;52.122;5.404;2023-06-22T01:32:57;3.65;;;2.67;;
75413;SDS011;64758;52.122;5.404;2023-06-22T01:35:24;3.47;;;3.10;;
75413;SDS011;64758;52.122;5.404;2023-06-22T01:37:51;5.77;;;3.40;;
75413;SDS011;64758;52.122;5.404;2023-06-22T01:40:18;4.35;;;2.90;;
75413;SDS011;64758;52.122;5.404;2023-06-22T01:42:46;6.05;;;2.67;;
75413;SDS011;64758;52.122;5.404;2023-06-22T01:45:14;4.03;;;3.05;;
75413;SDS011;64758;52.122;5.404;2023-06-22T01:47:42;3.80;;;3.30;;
75413;SDS011;64758;52.122;5.404;2023-06-22T01:50:08;4.30;;;3.00;;
75413;SDS011;64758;52.122;5.404;2023-06-22T01:52:35;4.38;;;3.00;;
75413;SDS011;64758;52.122;5.404;2023-06-22T01:55:02;4.82;;;2.67;;
75413;SDS011;64758;52.122;5.404;2023-06-22T01:57:30;3.75;;;2.60;;
75413;SDS011;64758;52.122;5.404;2023-06-22T02:00:04;3.70;;;2.55;;
75413;SDS011;64758;52.122;5.404;2023-06-22T02:02:43;3.73;;;2.50;;
75413;SDS011;64758;52.122;5.404;2023-06-22T02:05:19;3.78;;;2.55;;
75413;SDS011;64758;52.122;5.404;2023-06-22T02:07:52;4.45;;;2.72;;
75413;SDS011;64758;52.122;5.404;2023-06-22T02:10:33;4.82;;;3.08;;
75413;SDS011;64758;52.122;5.404;2023-06-22T02:13:04;4.57;;;3.60;;
75413;SDS011;64758;52.122;5.404;2023-06-22T02:15:32;4.20;;;3.10;;
75413;SDS011;64758;52.122;5.404;2023-06-22T02:17:59;5.43;;;3.13;;
75413;SDS011;64758;52.122;5.404;2023-06-22T02:20:26;3.97;;;2.97;;
75413;SDS011;64758;52.122;5.404;2023-06-22T02:22:54;5.15;;;3.08;;
75413;SDS011;64758;52.122;5.404;2023-06-22T02:25:20;5.90;;;2.90;;
75413;SDS011;64758;52.122;5.404;2023-06-22T02:27:47;2.90;;;2.50;;
75413;SDS011;64758;52.122;5.404;2023-06-22T02:30:14;8.82;;;2.85;;
75413;SDS011;64758;52.122;5.404;2023-06-22T02:32:42;4.78;;;3.40;;
75413;SDS011;64758;52.122;5.404;2023-06-22T02:35:09;3.78;;;2.88;;
75413;SDS011;64758;52.122;5.404;2023-06-22T02:37:36;4.25;;;3.35;;
75413;SDS011;64758;52.122;5.404;2023-06-22T02:40:08;4.97;;;3.20;;
75413;SDS011;64758;52.122;5.404;2023-06-22T02:42:36;4.82;;;3.33;;
75413;SDS011;64758;52.122;5.404;2023-06-22T02:45:05;3.80;;;2.47;;
75413;SDS011;64758;52.122;5.404;2023-06-22T02:47:32;3.67;;;2.50;;
75413;SDS011;64758;52.122;5.404;2023-06-22T02:49:58;4.20;;;2.65;;
75413;SDS011;64758;52.122;5.404;2023-06-22T02:52:25;4.50;;;2.63;;
75413;SDS011;64758;52.122;5.404;2023-06-22T02:54:52;3.90;;;2.55;;
75413;SDS011;64758;52.122;5.404;2023-06-22T02:57:18;5.43;;;3.08;;
75413;SDS011;64758;52.122;5.404;2023-06-22T02:59:45;4.40;;;2.83;;
75413;SDS011;64758;52.122;5.404;2023-06-22T03:02:11;5.38;;;3.30;;
75413;SDS011;64758;52.122;5.404;2023-06-22T03:04:38;3.53;;;2.60;;
75413;SDS011;64758;52.122;5.404;2023-06-22T03:07:05;5.72;;;3.08;;
75413;SDS011;64758;52.122;5.404;2023-06-22T03:09:32;4.40;;;2.88;;
75413;SDS011;64758;52.122;5.404;2023-06-22T03:11:59;3.88;;;2.97;;
75413;SDS011;64758;52.122;5.404;2023-06-22T03:14:26;4.72;;;3.50;;
75413;SDS011;64758;52.122;5.404;2023-06-22T03:16:53;4.80;;;2.83;;
75413;SDS011;64758;52.122;5.404;2023-06-22T03:19:19;5.25;;;3.05;;
75413;SDS011;64758;52.122;5.404;2023-06-22T03:21:48;5.40;;;3.33;;
75413;SDS011;64758;52.122;5.404;2023-06-22T03:24:14;4.40;;;2.72;;
75413;SDS011;64758;52.122;5.404;2023-06-22T03:26:41;4.35;;;3.08;;
75413;SDS011;64758;52.122;5.404;2023-06-22T03:29:07;3.73;;;2.83;;
75413;SDS011;64758;52.122;5.404;2023-06-22T03:31:34;4.75;;;3.20;;
75413;SDS011;64758;52.122;5.404;2023-06-22T03:34:00;3.78;;;2.85;;
75413;SDS011;64758;52.122;5.404;2023-06-22T03:36:27;4.10;;;3.08;;
75413;SDS011;64758;52.122;5.404;2023-06-22T03:38:53;4.60;;;3.08;;
75413;SDS011;64758;52.122;5.404;2023-06-22T03:41:20;4.27;;;3.10;;
75413;SDS011;64758;52.122;5.404;2023-06-22T03:43:47;4.88;;;3.13;;
75413;SDS011;64758;52.122;5.404;2023-06-22T03:46:13;4.68;;;3.17;;
75413;SDS011;64758;52.122;5.404;2023-06-22T03:48:40;4.55;;;3.38;;
75413;SDS011;64758;52.122;5.404;2023-06-22T03:51:07;6.32;;;2.72;;
75413;SDS011;64758;52.122;5.404;2023-06-22T03:53:33;4.53;;;3.37;;
75413;SDS011;64758;52.122;5.404;2023-06-22T03:56:00;4.45;;;3.15;;
75413;SDS011;64758;52.122;5.404;2023-06-22T03:58:26;4.93;;;2.85;;
75413;SDS011;64758;52.122;5.404;2023-06-22T04:00:58;4.28;;;3.15;;
75413;SDS011;64758;52.122;5.404;2023-06-22T04:03:26;5.55;;;3.50;;
75413;SDS011;64758;52.122;5.404;2023-06-22T04:05:53;4.87;;;2.77;;
75413;SDS011;64758;52.122;5.404;2023-06-22T04:08:19;4.78;;;3.08;;
75413;SDS011;64758;52.122;5.404;2023-06-22T04:10:46;5.00;;;3.17;;
75413;SDS011;64758;52.122;5.404;2023-06-22T04:13:13;3.75;;;2.72;;
75413;SDS011;64758;52.122;5.404;2023-06-22T04:15:39;5.18;;;3.45;;
75413;SDS011;64758;52.122;5.404;2023-06-22T04:18:06;3.80;;;3.40;;
75413;SDS011;64758;52.122;5.404;2023-06-22T04:20:32;5.55;;;3.58;;
75413;SDS011;64758;52.122;5.404;2023-06-22T04:22:59;7.50;;;3.90;;
75413;SDS011;64758;52.122;5.404;2023-06-22T04:25:26;8.48;;;5.60;;
75413;SDS011;64758;52.122;5.404;2023-06-22T04:27:52;8.50;;;4.70;;
75413;SDS011;64758;52.122;5.404;2023-06-22T04:30:19;6.03;;;4.40;;
75413;SDS011;64758;52.122;5.404;2023-06-22T04:32:46;8.95;;;5.30;;
75413;SDS011;64758;52.122;5.404;2023-06-22T04:35:24;7.05;;;5.35;;
75413;SDS011;64758;52.122;5.404;2023-06-22T04:37:52;9.75;;;6.20;;
75413;SDS011;64758;52.122;5.404;2023-06-22T04:40:24;6.40;;;4.85;;
75413;SDS011;64758;52.122;5.404;2023-06-22T04:42:51;6.50;;;4.73;;
75413;SDS011;64758;52.122;5.404;2023-06-22T04:45:20;11.13;;;7.43;;
75413;SDS011;64758;52.122;5.404;2023-06-22T04:47:47;6.93;;;5.30;;
75413;SDS011;64758;52.122;5.404;2023-06-22T04:50:14;7.80;;;5.40;;
75413;SDS011;64758;52.122;5.404;2023-06-22T04:52:41;8.07;;;5.93;;
75413;SDS011;64758;52.122;5.404;2023-06-22T04:55:07;12.47;;;8.27;;
75413;SDS011;64758;52.122;5.404;2023-06-22T04:57:35;15.88;;;9.98;;
75413;SDS011;64758;52.122;5.404;2023-06-22T05:00:01;15.35;;;10.07;;
75413;SDS011;64758;52.122;5.404;2023-06-22T05:02:41;15.85;;;11.00;;
75413;SDS011;64758;52.122;5.404;2023-06-22T05:05:08;16.17;;;11.88;;
75413;SDS011;64758;52.122;5.404;2023-06-22T05:07:35;19.63;;;11.77;;
75413;SDS011;64758;52.122;5.404;2023-06-22T05:10:02;20.63;;;12.60;;
75413;SDS011;64758;52.122;5.404;2023-06-22T05:12:30;16.80;;;11.50;;
75413;SDS011;64758;52.122;5.404;2023-06-22T05:14:56;19.42;;;12.98;;
75413;SDS011;64758;52.122;5.404;2023-06-22T05:17:24;20.80;;;13.38;;
75413;SDS011;64758;52.122;5.404;2023-06-22T05:19:51;17.10;;;12.30;;
75413;SDS011;64758;52.122;5.404;2023-06-22T05:22:17;20.48;;;13.20;;
75413;SDS011;64758;52.122;5.404;2023-06-22T05:24:45;22.20;;;14.60;;
75413;SDS011;64758;52.122;5.404;2023-06-22T05:27:13;23.23;;;14.90;;
75413;SDS011;64758;52.122;5.404;2023-06-22T05:29:40;23.08;;;15.93;;
75413;SDS011;64758;52.122;5.404;2023-06-22T05:32:08;21.93;;;14.97;;
75413;SDS011;64758;52.122;5.404;2023-06-22T05:34:35;22.02;;;14.57;;
75413;SDS011;64758;52.122;5.404;2023-06-22T05:37:02;24.60;;;15.90;;
75413;SDS011;64758;52.122;5.404;2023-06-22T05:39:29;21.15;;;15.65;;
75413;SDS011;64758;52.122;5.404;2023-06-22T05:41:55;25.30;;;15.95;;
75413;SDS011;64758;52.122;5.404;2023-06-22T05:44:22;20.70;;;15.73;;
75413;SDS011;64758;52.122;5.404;2023-06-22T05:46:48;23.17;;;14.93;;
75413;SDS011;64758;52.122;5.404;2023-06-22T05:49:16;23.33;;;16.10;;
75413;SDS011;64758;52.122;5.404;2023-06-22T05:51:42;22.90;;;16.20;;
75413;SDS011;64758;52.122;5.404;2023-06-22T05:54:09;26.15;;;16.80;;
75413;SDS011;64758;52.122;5.404;2023-06-22T05:56:36;24.80;;;16.73;;
75413;SDS011;64758;52.122;5.404;2023-06-22T05:59:03;25.65;;;16.70;;
75413;SDS011;64758;52.122;5.404;2023-06-22T06:01:30;24.15;;;17.08;;
75413;SDS011;64758;52.122;5.404;2023-06-22T06:04:02;25.90;;;18.05;;
75413;SDS011;64758;52.122;5.404;2023-06-22T06:06:34;25.90;;;18.30;;
75413;SDS011;64758;52.122;5.404;2023-06-22T06:09:03;24.47;;;17.90;;
75413;SDS011;64758;52.122;5.404;2023-06-22T06:11:30;25.95;;;17.25;;
75413;SDS011;64758;52.122;5.404;2023-06-22T06:13:57;25.52;;;17.38;;
75413;SDS011;64758;52.122;5.404;2023-06-22T06:16:24;23.13;;;16.13;;
75413;SDS011;64758;52.122;5.404;2023-06-22T06:18:50;24.98;;;17.33;;
75413;SDS011;64758;52.122;5.404;2023-06-22T06:21:17;25.93;;;18.33;;
75413;SDS011;64758;52.122;5.404;2023-06-22T06:23:44;23.33;;;16.15;;
75413;SDS011;64758;52.122;5.404;2023-06-22T06:26:10;24.75;;;17.27;;
75413;SDS011;64758;52.122;5.404;2023-06-22T06:28:37;24.45;;;16.75;;
75413;SDS011;64758;52.122;5.404;2023-06-22T06:31:03;23.77;;;17.50;;
75413;SDS011;64758;52.122;5.404;2023-06-22T06:33:33;20.63;;;16.57;;
75413;SDS011;64758;52.122;5.404;2023-06-22T06:36:00;51.40;;;17.35;;
75413;SDS011;64758;52.122;5.404;2023-06-22T06:38:30;20.73;;;15.85;;
75413;SDS011;64758;52.122;5.404;2023-06-22T06:40:57;22.63;;;16.50;;
75413;SDS011;64758;52.122;5.404;2023-06-22T06:43:24;21.77;;;16.90;;
75413;SDS011;64758;52.122;5.404;2023-06-22T06:45:51;23.77;;;16.77;;
75413;SDS011;64758;52.122;5.404;2023-06-22T06:48:18;26.02;;;18.45;;
75413;SDS011;64758;52.122;5.404;2023-06-22T06:50:44;23.40;;;15.93;;
75413;SDS011;64758;52.122;5.404;2023-06-22T06:53:11;22.60;;;16.33;;
75413;SDS011;64758;52.122;5.404;2023-06-22T06:55:38;22.83;;;16.13;;
75413;SDS011;64758;52.122;5.404;2023-06-22T06:58:04;28.03;;;15.83;;
75413;SDS011;64758;52.122;5.404;2023-06-22T07:00:33;23.95;;;17.25;;
75413;SDS011;64758;52.122;5.404;2023-06-22T07:03:01;21.02;;;16.75;;
75413;SDS011;64758;52.122;5.404;2023-06-22T07:05:28;22.63;;;16.85;;
75413;SDS011;64758;52.122;5.404;2023-06-22T07:07:55;23.70;;;17.00;;
75413;SDS011;64758;52.122;5.404;2023-06-22T07:10:21;20.70;;;15.23;;
75413;SDS011;64758;52.122;5.404;2023-06-22T07:12:48;21.50;;;15.48;;
75413;SDS011;64758;52.122;5.404;2023-06-22T07:15:14;23.23;;;16.15;;
75413;SDS011;64758;52.122;5.404;2023-06-22T07:17:41;18.75;;;14.73;;
75413;SDS011;64758;52.122;5.404;2023-06-22T07:20:08;21.92;;;16.08;;
75413;SDS011;64758;52.122;5.404;2023-06-22T07:22:39;19.40;;;14.20;;
75413;SDS011;64758;52.122;5.404;2023-06-22T07:25:08;18.35;;;14.38;;
75413;SDS011;64758;52.122;5.404;2023-06-22T07:27:36;20.92;;;14.63;;
75413;SDS011;64758;52.122;5.404;2023-06-22T07:30:04;16.83;;;13.48;;
75413;SDS011;64758;52.122;5.404;2023-06-22T07:32:31;19.45;;;13.70;;
75413;SDS011;64758;52.122;5.404;2023-06-22T07:34:58;16.57;;;13.03;;
75413;SDS011;64758;52.122;5.404;2023-06-22T07:37:24;16.50;;;13.27;;
75413;SDS011;64758;52.122;5.404;2023-06-22T07:39:51;19.63;;;12.50;;
75413;SDS011;64758;52.122;5.404;2023-06-22T07:42:19;14.82;;;11.38;;
75413;SDS011;64758;52.122;5.404;2023-06-22T07:44:46;16.65;;;12.70;;
75413;SDS011;64758;52.122;5.404;2023-06-22T07:47:12;16.30;;;12.37;;
75413;SDS011;64758;52.122;5.404;2023-06-22T07:49:39;15.40;;;12.38;;
75413;SDS011;64758;52.122;5.404;2023-06-22T07:52:06;16.60;;;12.13;;
75413;SDS011;64758;52.122;5.404;2023-06-22T07:54:32;16.73;;;13.07;;
75413;SDS011;64758;52.122;5.404;2023-06-22T07:56:59;14.48;;;12.15;;
75413;SDS011;64758;52.122;5.404;2023-06-22T07:59:26;14.27;;;11.67;;
75413;SDS011;64758;52.122;5.404;2023-06-22T08:01:53;18.58;;;12.15;;
75413;SDS011;64758;52.122;5.404;2023-06-22T08:04:21;14.05;;;12.18;;
75413;SDS011;64758;52.122;5.404;2023-06-22T08:06:47;14.38;;;12.13;;
75413;SDS011;64758;52.122;5.404;2023-06-22T08:09:15;18.15;;;12.88;;
75413;SDS011;64758;52.122;5.404;2023-06-22T08:11:41;17.23;;;12.00;;
75413;SDS011;64758;52.122;5.404;2023-06-22T08:14:08;14.25;;;11.80;;
75413;SDS011;64758;52.122;5.404;2023-06-22T08:16:34;12.48;;;10.73;;
75413;SDS011;64758;52.122;5.404;2023-06-22T08:19:01;16.38;;;10.13;;
75413;SDS011;64758;52.122;5.404;2023-06-22T08:21:28;16.23;;;11.23;;
75413;SDS011;64758;52.122;5.404;2023-06-22T08:23:54;12.93;;;10.33;;
75413;SDS011;64758;52.122;5.404;2023-06-22T08:26:21;14.63;;;10.93;;
75413;SDS011;64758;52.122;5.404;2023-06-22T08:28:48;12.48;;;10.77;;
75413;SDS011;64758;52.122;5.404;2023-06-22T08:31:16;14.75;;;10.77;;
75413;SDS011;64758;52.122;5.404;2023-06-22T08:33:43;14.48;;;11.55;;
75413;SDS011;64758;52.122;5.404;2023-06-22T08:36:15;14.27;;;10.37;;
75413;SDS011;64758;52.122;5.404;2023-06-22T08:38:42;13.02;;;10.40;;
75413;SDS011;64758;52.122;5.404;2023-06-22T08:41:09;11.73;;;9.20;;
75413;SDS011;64758;52.122;5.404;2023-06-22T08:43:35;12.48;;;9.48;;
75413;SDS011;64758;52.122;5.404;2023-06-22T08:46:02;10.85;;;8.95;;
75413;SDS011;64758;52.122;5.404;2023-06-22T08:48:29;11.33;;;9.30;;
75413;SDS011;64758;52.122;5.404;2023-06-22T08:50:55;11.40;;;8.00;;
75413;SDS011;64758;52.122;5.404;2023-06-22T08:53:22;9.48;;;7.63;;
75413;SDS011;64758;52.122;5.404;2023-06-22T08:55:48;10.60;;;7.55;;
75413;SDS011;64758;52.122;5.404;2023-06-22T08:58:17;8.80;;;7.82;;
75413;SDS011;64758;52.122;5.404;2023-06-22T09:00:44;9.07;;;8.17;;
75413;SDS011;64758;52.122;5.404;2023-06-22T09:03:11;8.00;;;7.15;;
75413;SDS011;64758;52.122;5.404;2023-06-22T09:05:38;7.32;;;6.53;;
75413;SDS011;64758;52.122;5.404;2023-06-22T09:08:05;7.88;;;6.25;;
75413;SDS011;64758;52.122;5.404;2023-06-22T09:10:31;11.57;;;6.93;;
75413;SDS011;64758;52.122;5.404;2023-06-22T09:12:58;8.47;;;5.90;;
75413;SDS011;64758;52.122;5.404;2023-06-22T09:15:25;7.25;;;6.10;;
75413;SDS011;64758;52.122;5.404;2023-06-22T09:17:52;7.50;;;5.53;;
75413;SDS011;64758;52.122;5.404;2023-06-22T09:20:20;5.65;;;4.43;;
75413;SDS011;64758;52.122;5.404;2023-06-22T09:22:47;5.00;;;4.03;;
75413;SDS011;64758;52.122;5.404;2023-06-22T09:25:14;5.13;;;4.57;;
75413;SDS011;64758;52.122;5.404;2023-06-22T09:27:40;6.82;;;4.60;;
75413;SDS011;64758;52.122;5.404;2023-06-22T09:30:07;7.38;;;5.97;;
75413;SDS011;64758;52.122;5.404;2023-06-22T09:32:34;6.25;;;5.53;;
75413;SDS011;64758;52.122;5.404;2023-06-22T09:35:03;7.30;;;5.95;;
75413;SDS011;64758;52.122;5.404;2023-06-22T09:37:32;8.43;;;5.70;;
75413;SDS011;64758;52.122;5.404;2023-06-22T09:39:58;5.35;;;4.60;;
75413;SDS011;64758;52.122;5.404;2023-06-22T09:42:25;6.60;;;5.82;;
75413;SDS011;64758;52.122;5.404;2023-06-22T09:44:51;6.75;;;4.25;;
75413;SDS011;64758;52.122;5.404;2023-06-22T09:47:18;6.00;;;4.05;;
75413;SDS011;64758;52.122;5.404;2023-06-22T09:49:45;5.90;;;4.23;;
75413;SDS011;64758;52.122;5.404;2023-06-22T09:52:14;10.95;;;4.60;;
75413;SDS011;64758;52.122;5.404;2023-06-22T09:54:40;5.03;;;3.97;;
75413;SDS011;64758;52.122;5.404;2023-06-22T09:57:07;5.28;;;4.75;;
75413;SDS011;64758;52.122;5.404;2023-06-22T09:59:34;7.80;;;5.07;;
75413;SDS011;64758;52.122;5.404;2023-06-22T10:02:00;6.83;;;5.70;;
75413;SDS011;64758;52.122;5.404;2023-06-22T10:04:27;6.60;;;5.15;;
75413;SDS011;64758;52.122;5.404;2023-06-22T10:06:54;7.70;;;6.00;;
75413;SDS011;64758;52.122;5.404;2023-06-22T10:09:20;7.30;;;5.57;;
75413;SDS011;64758;52.122;5.404;2023-06-22T10:11:47;7.57;;;5.28;;
75413;SDS011;64758;52.122;5.404;2023-06-22T10:14:14;7.43;;;5.37;;
75413;SDS011;64758;52.122;5.404;2023-06-22T10:16:41;6.28;;;5.13;;
75413;SDS011;64758;52.122;5.404;2023-06-22T10:19:08;5.93;;;4.40;;
75413;SDS011;64758;52.122;5.404;2023-06-22T10:21:34;4.20;;;3.80;;
75413;SDS011;64758;52.122;5.404;2023-06-22T10:24:01;4.05;;;3.45;;
75413;SDS011;64758;52.122;5.404;2023-06-22T10:26:35;6.90;;;3.73;;
75413;SDS011;64758;52.122;5.404;2023-06-22T10:29:02;6.35;;;3.67;;
75413;SDS011;64758;52.122;5.404;2023-06-22T10:31:42;3.90;;;3.50;;
75413;SDS011;64758;52.122;5.404;2023-06-22T10:34:09;6.70;;;3.72;;
75413;SDS011;64758;52.122;5.404;2023-06-22T10:36:35;6.65;;;4.00;;
75413;SDS011;64758;52.122;5.404;2023-06-22T10:39:02;4.13;;;3.63;;
75413;SDS011;64758;52.122;5.404;2023-06-22T10:41:29;4.60;;;3.80;;
75413;SDS011;64758;52.122;5.404;2023-06-22T10:43:57;63.15;;;6.47;;
75413;SDS011;64758;52.122;5.404;2023-06-22T10:46:24;8.77;;;4.25;;
75413;SDS011;64758;52.122;5.404;2023-06-22T10:48:52;5.40;;;3.90;;
75413;SDS011;64758;52.122;5.404;2023-06-22T10:51:20;5.57;;;4.97;;
75413;SDS011;64758;52.122;5.404;2023-06-22T10:53:47;6.68;;;4.50;;
75413;SDS011;64758;52.122;5.404;2023-06-22T10:56:14;5.30;;;4.43;;
75413;SDS011;64758;52.122;5.404;2023-06-22T10:58:40;6.03;;;4.75;;
75413;SDS011;64758;52.122;5.404;2023-06-22T11:01:07;6.07;;;4.68;;
75413;SDS011;64758;52.122;5.404;2023-06-22T11:03:42;5.10;;;4.60;;
75413;SDS011;64758;52.122;5.404;2023-06-22T11:06:08;8.93;;;4.55;;
75413;SDS011;64758;52.122;5.404;2023-06-22T11:08:35;6.25;;;5.13;;
75413;SDS011;64758;52.122;5.404;2023-06-22T11:11:02;5.38;;;4.78;;
75413;SDS011;64758;52.122;5.404;2023-06-22T11:13:28;6.90;;;4.40;;
75413;SDS011;64758;52.122;5.404;2023-06-22T11:15:55;5.47;;;4.60;;
75413;SDS011;64758;52.122;5.404;2023-06-22T11:18:21;10.20;;;4.93;;
75413;SDS011;64758;52.122;5.404;2023-06-22T11:20:49;5.47;;;4.55;;
75413;SDS011;64758;52.122;5.404;2023-06-22T11:23:18;7.32;;;5.10;;
75413;SDS011;64758;52.122;5.404;2023-06-22T11:25:45;5.97;;;4.78;;
75413;SDS011;64758;52.122;5.404;2023-06-22T11:28:12;5.23;;;4.60;;
75413;SDS011;64758;52.122;5.404;2023-06-22T11:30:39;6.93;;;5.90;;
75413;SDS011;64758;52.122;5.404;2023-06-22T11:33:05;8.82;;;6.45;;
75413;SDS011;64758;52.122;5.404;2023-06-22T11:35:32;9.18;;;6.43;;
75413;SDS011;64758;52.122;5.404;2023-06-22T11:37:58;9.40;;;6.93;;
75413;SDS011;64758;52.122;5.404;2023-06-22T11:40:25;7.70;;;6.70;;
75413;SDS011;64758;52.122;5.404;2023-06-22T11:42:52;8.27;;;6.40;;
75413;SDS011;64758;52.122;5.404;2023-06-22T11:45:19;8.77;;;6.72;;
75413;SDS011;64758;52.122;5.404;2023-06-22T11:47:46;9.07;;;7.35;;
75413;SDS011;64758;52.122;5.404;2023-06-22T11:50:13;10.20;;;7.03;;
75413;SDS011;64758;52.122;5.404;2023-06-22T11:52:40;9.73;;;7.30;;
75413;SDS011;64758;52.122;5.404;2023-06-22T11:55:07;10.00;;;7.45;;
75413;SDS011;64758;52.122;5.404;2023-06-22T11:57:35;8.18;;;7.10;;
75413;SDS011;64758;52.122;5.404;2023-06-22T12:00:03;10.52;;;8.05;;
75413;SDS011;64758;52.122;5.404;2023-06-22T12:02:44;11.63;;;8.68;;
75413;SDS011;64758;52.122;5.404;2023-06-22T12:05:13;11.33;;;9.03;;
75413;SDS011;64758;52.122;5.404;2023-06-22T12:07:40;10.65;;;8.95;;
75413;SDS011;64758;52.122;5.404;2023-06-22T12:10:07;14.55;;;9.18;;
75413;SDS011;64758;52.122;5.404;2023-06-22T12:12:34;13.73;;;8.57;;
75413;SDS011;64758;52.122;5.404;2023-06-22T12:15:00;12.55;;;8.63;;
75413;SDS011;64758;52.122;5.404;2023-06-22T12:17:29;10.23;;;8.17;;
75413;SDS011;64758;52.122;5.404;2023-06-22T12:19:56;10.90;;;9.15;;
75413;SDS011;64758;52.122;5.404;2023-06-22T12:22:23;13.43;;;8.68;;
75413;SDS011;64758;52.122;5.404;2023-06-22T12:24:49;12.38;;;9.55;;
75413;SDS011;64758;52.122;5.404;2023-06-22T12:27:16;10.63;;;8.73;;
75413;SDS011;64758;52.122;5.404;2023-06-22T12:29:45;14.57;;;9.17;;
75413;SDS011;64758;52.122;5.404;2023-06-22T12:32:12;12.48;;;9.75;;
75413;SDS011;64758;52.122;5.404;2023-06-22T12:34:41;16.33;;;9.65;;
75413;SDS011;64758;52.122;5.404;2023-06-22T12:37:08;12.05;;;9.02;;
75413;SDS011;64758;52.122;5.404;2023-06-22T12:39:35;12.45;;;9.93;;
75413;SDS011;64758;52.122;5.404;2023-06-22T12:42:02;12.83;;;9.67;;
75413;SDS011;64758;52.122;5.404;2023-06-22T12:44:28;12.68;;;9.23;;
75413;SDS011;64758;52.122;5.404;2023-06-22T12:46:55;12.63;;;10.82;;
75413;SDS011;64758;52.122;5.404;2023-06-22T12:49:21;14.80;;;8.63;;
75413;SDS011;64758;52.122;5.404;2023-06-22T12:51:48;11.25;;;8.13;;
75413;SDS011;64758;52.122;5.404;2023-06-22T12:54:15;10.10;;;7.67;;
75413;SDS011;64758;52.122;5.404;2023-06-22T12:56:42;10.65;;;7.88;;
75413;SDS011;64758;52.122;5.404;2023-06-22T12:59:11;13.13;;;8.38;;
75413;SDS011;64758;52.122;5.404;2023-06-22T13:01:37;10.70;;;8.45;;
75413;SDS011;64758;52.122;5.404;2023-06-22T13:04:04;9.82;;;7.47;;
75413;SDS011;64758;52.122;5.404;2023-06-22T13:06:31;8.70;;;7.70;;
75413;SDS011;64758;52.122;5.404;2023-06-22T13:08:58;9.88;;;7.55;;
75413;SDS011;64758;52.122;5.404;2023-06-22T13:11:44;8.15;;;6.32;;
75413;SDS011;64758;52.122;5.404;2023-06-22T13:14:11;7.60;;;6.90;;
75413;SDS011;64758;52.122;5.404;2023-06-22T13:16:37;9.65;;;7.50;;
75413;SDS011;64758;52.122;5.404;2023-06-22T13:19:04;9.57;;;6.90;;
75413;SDS011;64758;52.122;5.404;2023-06-22T13:21:31;8.18;;;7.28;;
75413;SDS011;64758;52.122;5.404;2023-06-22T13:23:57;10.88;;;8.30;;
75413;SDS011;64758;52.122;5.404;2023-06-22T13:26:24;11.55;;;8.38;;
75413;SDS011;64758;52.122;5.404;2023-06-22T13:28:50;9.38;;;7.40;;
75413;SDS011;64758;52.122;5.404;2023-06-22T13:31:17;11.67;;;8.90;;
75413;SDS011;64758;52.122;5.404;2023-06-22T13:33:44;11.82;;;8.55;;
75413;SDS011;64758;52.122;5.404;2023-06-22T13:36:14;12.95;;;8.88;;
75413;SDS011;64758;52.122;5.404;2023-06-22T13:38:40;10.48;;;8.45;;
75413;SDS011;64758;52.122;5.404;2023-06-22T13:41:07;10.73;;;8.40;;
75413;SDS011;64758;52.122;5.404;2023-06-22T13:43:33;12.73;;;8.40;;
75413;SDS011;64758;52.122;5.404;2023-06-22T13:46:00;12.10;;;8.65;;
75413;SDS011;64758;52.122;5.404;2023-06-22T13:48:27;13.50;;;9.38;;
75413;SDS011;64758;52.122;5.404;2023-06-22T13:50:54;14.13;;;9.13;;
75413;SDS011;64758;52.122;5.404;2023-06-22T13:53:21;12.35;;;8.88;;
75413;SDS011;64758;52.122;5.404;2023-06-22T13:55:47;10.33;;;8.57;;
75413;SDS011;64758;52.122;5.404;2023-06-22T13:58:14;11.73;;;9.70;;
75413;SDS011;64758;52.122;5.404;2023-06-22T14:00:41;11.27;;;9.35;;
75413;SDS011;64758;52.122;5.404;2023-06-22T14:03:07;11.93;;;9.13;;
75413;SDS011;64758;52.122;5.404;2023-06-22T14:05:34;12.93;;;10.50;;
75413;SDS011;64758;52.122;5.404;2023-06-22T14:08:00;12.03;;;10.03;;
75413;SDS011;64758;52.122;5.404;2023-06-22T14:10:27;13.68;;;10.25;;
75413;SDS011;64758;52.122;5.404;2023-06-22T14:12:54;10.13;;;9.05;;
75413;SDS011;64758;52.122;5.404;2023-06-22T14:15:21;12.32;;;9.80;;
75413;SDS011;64758;52.122;5.404;2023-06-22T14:17:48;13.40;;;9.77;;
75413;SDS011;64758;52.122;5.404;2023-06-22T14:20:14;11.23;;;9.40;;
75413;SDS011;64758;52.122;5.404;2023-06-22T14:22:41;12.50;;;9.55;;
75413;SDS011;64758;52.122;5.404;2023-06-22T14:25:08;13.15;;;10.18;;
75413;SDS011;64758;52.122;5.404;2023-06-22T14:27:35;11.02;;;9.85;;
75413;SDS011;64758;52.122;5.404;2023-06-22T14:30:02;12.40;;;9.95;;
75413;SDS011;64758;52.122;5.404;2023-06-22T14:32:32;13.17;;;10.10;;
75413;SDS011;64758;52.122;5.404;2023-06-22T14:34:58;12.02;;;9.48;;
75413;SDS011;64758;52.122;5.404;2023-06-22T14:37:25;11.82;;;10.15;;
75413;SDS011;64758;52.122;5.404;2023-06-22T14:39:51;12.88;;;9.43;;
75413;SDS011;64758;52.122;5.404;2023-06-22T14:42:18;13.98;;;10.30;;
75413;SDS011;64758;52.122;5.404;2023-06-22T14:44:44;14.53;;;10.10;;
75413;SDS011;64758;52.122;5.404;2023-06-22T14:47:11;13.05;;;9.88;;